Batumi International Airport
UGSB : rendu visible

Aérodrome :











RETROUVEZ-NOUS SUR...

 
LOGIN :

S'inscrire | Disclaimer

   EN    FR    IT 

 









Légende :    VFR   VFR Marginal   IFR   IFR Intensif   IFR Très Intensif
Visi : 
Plafond : 
>= 8 km
>= 3000ft
5 à 8 km
1000 à 3000 ft
1500m à 5 km
500 à 1000 ft
800 à 1500m
200 à 500 ft
< 800m
< 200 ft
Symboles :   Orages  Brouillard  Fortes neiges  Fortes précipitations  Vent > 20 kt







- Altitude de l'aérodrome : 105 ft
- Code IATA : BUS


UGSB - Batumi International

DERNIER METAR :
  • 260500Z 13015KT CAVOK 14/09 Q1017 R13/CLRD70 NOSIG

METARs EXPIRÉS :
  • 260430Z 14017KT CAVOK 13/09 Q1017 R13/CLRD70 NOSIG
  • 260400Z 14016KT CAVOK 12/09 Q1018 R13/70D NOSIG
  • 260330Z AUTO 13017KT CAVOK 12/09 Q1017 R13/70D NOSIG
  • 260300Z AUTO 14016KT CAVOK 12/09 Q1018 R13/CLRD70 NOSIG
  • 260230Z AUTO 14015KT CAVOK 12/09 Q1018 R13/CLRD70 NOSIG

TAF TAF UGSB
Valide du 26 à 00h jusqu'au 27 à 00h UTC


252300Z 2600/2624 12016KT 9999 FEW030 TX22/2611Z TN12/2602Z
BECMG 2606/2608 30007KT
BECMG 2614/2616 13010KT SCT025 BKN080
FIR UGGG / Asie



MET'MAP, la Météo Aéronautique d'un coup d'oeil ! - Copyright ORBIFLY Décembre 2007 - Disclaimer

ORBIFLY MET'MAP TEAM :

Programmation & Développement : Alexandra Zaïnal
Conception & Développement : Baudouin d'Aumeries
Co-Programmation & Développement : Marc-Olivier Méhu
Soutien technique & logistique : Manuel Goepfert

Contact : metmap@orbifly.com




SOURCES & CREDITS :

   NOAA       Earth
Advisory